createdAt,value
2022-09-07T00:01:18.053Z,23.20
2022-09-07T00:03:45.689Z,23.21
2022-09-07T00:06:15.054Z,23.18
2022-09-07T00:08:43.747Z,23.16
2022-09-07T00:11:14.585Z,23.14
2022-09-07T00:13:44.705Z,23.13
2022-09-07T00:16:16.169Z,23.09
2022-09-07T00:18:46.334Z,23.09
2022-09-07T00:21:17.966Z,23.05
2022-09-07T00:23:47.569Z,23.06
2022-09-07T00:26:18.866Z,23.09
2022-09-07T00:28:46.995Z,23.10
2022-09-07T00:31:17.739Z,23.10
2022-09-07T00:33:47.964Z,23.12
2022-09-07T00:36:18.065Z,23.14
2022-09-07T00:38:45.517Z,23.12
2022-09-07T00:41:13.404Z,23.14
2022-09-07T00:43:44.906Z,23.15
2022-09-07T00:46:16.288Z,23.16
2022-09-07T00:48:53.371Z,23.14
2022-09-07T00:51:29.366Z,23.13
2022-09-07T00:54:02.951Z,23.11
2022-09-07T00:56:36.342Z,23.10
2022-09-07T00:59:04.519Z,23.11
2022-09-07T01:01:34.285Z,23.12
2022-09-07T01:04:03.215Z,23.12
2022-09-07T01:06:36.759Z,23.12
2022-09-07T01:09:08.040Z,23.13
2022-09-07T01:11:36.948Z,23.12
2022-09-07T01:14:08.006Z,23.12
2022-09-07T01:17:03.505Z,23.09
2022-09-07T01:20:03.882Z,23.07
2022-09-07T01:23:02.159Z,23.04
2022-09-07T01:25:43.006Z,23.04
2022-09-07T01:28:19.729Z,23.05
2022-09-07T01:30:56.849Z,23.06
2022-09-07T01:33:49.549Z,23.01
2022-09-07T01:36:26.715Z,23.05
2022-09-07T01:38:59.033Z,23.06
2022-09-07T01:41:35.878Z,23.05
2022-09-07T01:44:12.598Z,23.06
2022-09-07T01:46:46.362Z,23.07
2022-09-07T01:49:21.750Z,23.06
2022-09-07T01:51:55.774Z,23.06
2022-09-07T01:54:32.336Z,23.05
2022-09-07T01:57:06.566Z,23.06
2022-09-07T01:59:43.248Z,23.06
2022-09-07T02:02:16.706Z,23.06
2022-09-07T02:04:52.965Z,23.04
2022-09-07T02:07:27.986Z,23.01
2022-09-07T02:10:02.129Z,23.02
2022-09-07T02:12:38.934Z,23.01
2022-09-07T02:15:15.483Z,23.02
2022-09-07T02:17:49.620Z,23.03
2022-09-07T02:20:24.346Z,23.02
2022-09-07T02:23:05.400Z,23.04
2022-09-07T02:25:41.026Z,23.06
2022-09-07T02:28:14.662Z,23.08
2022-09-07T02:30:44.411Z,23.08
2022-09-07T02:33:12.032Z,23.08
2022-09-07T02:35:39.622Z,23.11
2022-09-07T02:38:08.319Z,23.13
2022-09-07T02:40:36.296Z,23.16
2022-09-07T02:43:08.615Z,23.19
2022-09-07T02:45:59.773Z,23.18
2022-09-07T02:48:42.047Z,23.21
2022-09-07T02:51:18.286Z,23.24
2022-09-07T02:54:27.317Z,23.20
2022-09-07T02:57:10.455Z,23.24
2022-09-07T02:59:56.313Z,23.20
2022-09-07T03:02:35.115Z,23.09
2022-09-07T03:05:12.968Z,23.04
2022-09-07T03:07:51.420Z,22.97
2022-09-07T03:10:19.441Z,22.96
2022-09-07T03:12:49.989Z,22.95
2022-09-07T03:15:21.512Z,22.83
2022-09-07T03:17:50.827Z,22.85
2022-09-07T03:20:19.694Z,22.87
2022-09-07T03:22:50.339Z,22.87
2022-09-07T03:25:19.042Z,22.89
2022-09-07T03:27:46.467Z,22.92
2022-09-07T03:30:14.825Z,22.95
2022-09-07T03:32:42.441Z,22.98
2022-09-07T03:35:14.321Z,23.00
2022-09-07T03:37:42.039Z,23.02
2022-09-07T03:40:12.184Z,23.06
2022-09-07T03:42:39.990Z,23.10
2022-09-07T03:45:09.665Z,23.10
2022-09-07T03:47:38.135Z,23.13
2022-09-07T03:50:07.322Z,23.18
2022-09-07T03:52:37.154Z,23.20
2022-09-07T03:55:05.680Z,23.24
2022-09-07T03:57:33.067Z,23.26
2022-09-07T04:00:00.457Z,23.21
2022-09-07T04:02:27.969Z,23.22
2022-09-07T04:04:55.322Z,23.24
2022-09-07T04:07:22.738Z,23.21
2022-09-07T04:09:51.489Z,23.18
2022-09-07T04:12:18.899Z,23.17
2022-09-07T04:14:46.444Z,23.16
2022-09-07T04:17:13.802Z,23.14
2022-09-07T04:19:41.250Z,23.15
2022-09-07T04:22:08.604Z,23.16
2022-09-07T04:24:35.973Z,23.17
2022-09-07T04:27:04.824Z,23.21
2022-09-07T04:29:32.250Z,23.25
2022-09-07T04:31:59.654Z,23.29
2022-09-07T04:34:27.210Z,23.33
2022-09-07T04:36:54.498Z,23.34
2022-09-07T04:39:21.839Z,23.35
2022-09-07T04:41:49.169Z,23.39
2022-09-07T04:44:17.933Z,23.41
2022-09-07T04:46:45.379Z,23.42
2022-09-07T04:49:12.802Z,23.44
2022-09-07T04:51:42.899Z,23.42
2022-09-07T04:54:11.533Z,23.39
2022-09-07T04:56:39.438Z,23.35
2022-09-07T04:59:06.915Z,23.30
2022-09-07T05:01:35.801Z,23.28
2022-09-07T05:04:04.803Z,23.26
2022-09-07T05:06:32.614Z,23.26
2022-09-07T05:09:00.764Z,23.25
2022-09-07T05:11:29.911Z,23.23
2022-09-07T05:13:58.106Z,23.20
2022-09-07T05:16:27.111Z,23.15
2022-09-07T05:18:58.462Z,23.10
2022-09-07T05:21:28.916Z,23.09
2022-09-07T05:23:58.813Z,23.06
2022-09-07T05:26:28.909Z,23.02
2022-09-07T05:31:43.853Z,22.86
2022-09-07T05:36:55.715Z,22.72
2022-09-07T05:39:23.194Z,22.73
2022-09-07T05:41:50.535Z,22.72
2022-09-07T05:47:05.764Z,22.78
2022-09-07T05:49:34.608Z,22.83
2022-09-07T05:52:02.264Z,22.88
2022-09-07T05:54:29.561Z,22.91
2022-09-07T05:56:56.919Z,22.88
2022-09-07T05:59:24.258Z,22.84
2022-09-07T06:01:51.727Z,22.81
2022-09-07T06:04:19.611Z,22.80
2022-09-07T06:07:11.057Z,22.81
2022-09-07T06:12:24.067Z,22.89
2022-09-07T06:14:51.426Z,22.95
2022-09-07T06:17:19.759Z,23.01
2022-09-07T06:19:47.137Z,23.05
2022-09-07T06:22:16.350Z,23.04
2022-09-07T06:24:43.752Z,23.00
2022-09-07T06:27:11.413Z,22.95
2022-09-07T06:29:38.808Z,22.95
2022-09-07T06:34:53.858Z,22.92
2022-09-07T06:37:22.672Z,22.88
2022-09-07T06:39:50.119Z,22.87
2022-09-07T06:42:17.567Z,22.92
2022-09-07T06:44:44.955Z,22.97
2022-09-07T06:47:12.440Z,23.01
2022-09-07T06:49:39.874Z,23.04
2022-09-07T06:52:07.285Z,23.05
2022-09-07T06:57:23.559Z,23.12
2022-09-07T06:59:50.954Z,23.16
2022-09-07T07:02:21.656Z,23.21
2022-09-07T07:04:50.190Z,23.26
2022-09-07T07:07:17.642Z,23.32
2022-09-07T07:09:46.422Z,23.42
2022-09-07T07:12:13.746Z,23.50
2022-09-07T07:14:44.618Z,23.58
2022-09-07T07:17:12.666Z,23.66
2022-09-07T07:19:40.074Z,23.75
2022-09-07T07:22:23.983Z,23.84
2022-09-07T07:24:56.187Z,23.91
2022-09-07T07:27:23.718Z,24.02
2022-09-07T07:29:52.445Z,24.16
2022-09-07T07:32:20.062Z,24.37
2022-09-07T07:34:47.439Z,24.58
2022-09-07T07:37:16.152Z,24.77
2022-09-07T07:42:33.934Z,25.05
2022-09-07T07:47:51.331Z,25.16
2022-09-07T07:50:34.943Z,25.21
2022-09-07T07:55:50.693Z,25.32
2022-09-07T07:58:19.909Z,25.41
2022-09-07T08:00:55.863Z,25.54
2022-09-07T08:03:25.319Z,25.69
2022-09-07T08:05:53.306Z,25.83
2022-09-07T08:08:23.340Z,25.99
2022-09-07T08:10:51.216Z,26.16
2022-09-07T08:13:21.420Z,26.35
2022-09-07T08:15:49.000Z,26.55
2022-09-07T08:18:17.609Z,26.83
2022-09-07T08:20:44.924Z,27.20
2022-09-07T08:23:12.197Z,27.60
2022-09-07T08:25:48.495Z,28.01
2022-09-07T08:28:15.762Z,28.49
2022-09-07T08:30:44.452Z,29.08
2022-09-07T08:33:11.641Z,29.57
2022-09-07T08:35:39.000Z,29.93
2022-09-07T08:38:06.427Z,30.42
2022-09-07T08:40:38.191Z,30.94
2022-09-07T08:43:19.597Z,31.27
2022-09-07T08:45:54.599Z,31.59
2022-09-07T08:48:32.187Z,32.08
2022-09-07T08:51:10.321Z,32.42
2022-09-07T08:53:46.599Z,32.50
2022-09-07T08:56:22.287Z,32.66
2022-09-07T08:58:53.209Z,32.99
2022-09-07T09:01:32.287Z,33.31
2022-09-07T09:04:17.223Z,33.74
2022-09-07T09:07:01.356Z,34.28
2022-09-07T09:09:47.024Z,34.81
2022-09-07T09:12:27.715Z,35.24
2022-09-07T09:15:16.201Z,35.48
2022-09-07T09:17:56.847Z,35.55
2022-09-07T09:20:31.598Z,35.57
2022-09-07T09:23:12.351Z,35.23
2022-09-07T09:25:51.076Z,34.64
2022-09-07T09:28:18.751Z,34.36
2022-09-07T09:30:47.905Z,34.68
2022-09-07T09:33:20.598Z,35.17
2022-09-07T09:35:50.094Z,35.58
2022-09-07T09:38:35.600Z,36.11
2022-09-07T09:41:08.769Z,36.60
2022-09-07T09:43:43.491Z,37.09
2022-09-07T09:46:23.195Z,37.57
2022-09-07T09:48:56.874Z,37.75
2022-09-07T09:54:25.986Z,37.78
2022-09-07T09:56:53.562Z,37.98
2022-09-07T10:05:33.386Z,38.49
2022-09-07T10:08:01.441Z,38.76
2022-09-07T10:10:30.175Z,38.89
2022-09-07T10:12:58.101Z,38.63
2022-09-07T10:15:39.688Z,38.35
2022-09-07T10:18:18.751Z,38.06
2022-09-07T10:20:48.091Z,37.76
2022-09-07T10:23:23.402Z,37.43
2022-09-07T10:25:51.175Z,37.14
2022-09-07T10:28:21.728Z,36.73
2022-09-07T10:31:15.278Z,36.33
2022-09-07T10:36:53.609Z,35.67
2022-09-07T10:39:27.804Z,35.29
2022-09-07T10:42:06.104Z,34.79
2022-09-07T10:44:55.444Z,34.21
2022-09-07T10:47:42.726Z,33.70
2022-09-07T10:50:24.978Z,33.24
2022-09-07T10:53:39.601Z,32.83
2022-09-07T10:56:11.512Z,32.49
2022-09-07T10:59:03.489Z,32.32
2022-09-07T11:01:48.704Z,32.16
2022-09-07T11:04:41.106Z,31.97
2022-09-07T11:07:29.143Z,31.87
2022-09-07T11:10:11.954Z,32.55
2022-09-07T11:12:44.424Z,33.06
2022-09-07T11:15:24.481Z,33.80
2022-09-07T11:17:56.938Z,34.04
2022-09-07T11:20:31.441Z,34.30
2022-09-07T11:23:12.769Z,33.87
2022-09-07T11:25:52.182Z,33.63
2022-09-07T11:28:27.520Z,33.74
2022-09-07T11:31:00.728Z,33.77
2022-09-07T11:33:35.146Z,33.83
2022-09-07T11:36:12.733Z,33.82
2022-09-07T11:38:48.261Z,33.68
2022-09-07T11:41:28.887Z,33.31
2022-09-07T11:44:06.669Z,32.97
2022-09-07T11:46:42.019Z,32.69
2022-09-07T11:49:21.228Z,32.34
2022-09-07T11:51:56.301Z,32.20
2022-09-07T11:54:38.847Z,32.09
2022-09-07T11:57:37.403Z,32.00
2022-09-07T12:00:13.813Z,31.98
2022-09-07T12:03:11.620Z,31.92
2022-09-07T12:06:11.259Z,31.79
2022-09-07T12:09:06.339Z,31.65
2022-09-07T12:12:07.139Z,31.49
2022-09-07T12:14:53.724Z,31.30
2022-09-07T12:17:43.858Z,31.19
2022-09-07T12:20:15.180Z,31.22
2022-09-07T12:23:05.266Z,31.08
2022-09-07T12:25:34.816Z,31.08
2022-09-07T12:28:02.659Z,31.08
2022-09-07T12:30:56.498Z,31.02
2022-09-07T12:33:31.784Z,31.08
2022-09-07T12:36:00.903Z,31.12
2022-09-07T12:39:26.793Z,31.01
2022-09-07T12:42:37.512Z,31.10
2022-09-07T12:45:49.259Z,31.08
2022-09-07T12:48:46.788Z,31.17
2022-09-07T12:54:28.493Z,31.07
2022-09-07T13:00:11.861Z,30.80
2022-09-07T13:03:51.130Z,30.67
2022-09-07T13:09:34.960Z,30.65
2022-09-07T13:15:37.999Z,30.54
2022-09-07T13:18:06.506Z,30.57
2022-09-07T13:20:39.155Z,30.51
2022-09-07T13:23:25.104Z,30.34
2022-09-07T13:25:59.996Z,30.30
2022-09-07T13:28:52.546Z,30.28
2022-09-07T13:31:58.597Z,30.24
2022-09-07T13:34:50.099Z,30.22
2022-09-07T13:37:22.966Z,30.19
2022-09-07T13:39:55.584Z,30.21
2022-09-07T13:42:28.758Z,30.25
2022-09-07T13:44:58.281Z,30.24
2022-09-07T13:47:45.279Z,30.14
2022-09-07T13:50:29.051Z,30.11
2022-09-07T13:53:31.022Z,30.03
2022-09-07T13:56:15.696Z,30.02
2022-09-07T13:58:47.785Z,29.97
2022-09-07T14:01:20.247Z,29.91
2022-09-07T14:03:53.682Z,29.86
2022-09-07T14:06:34.265Z,29.79
2022-09-07T14:09:06.144Z,29.75
2022-09-07T14:11:46.282Z,29.67
2022-09-07T14:14:20.207Z,29.67
2022-09-07T14:16:54.273Z,29.68
2022-09-07T14:19:25.667Z,29.72
2022-09-07T14:22:03.049Z,29.79
2022-09-07T14:24:35.175Z,29.91
2022-09-07T14:27:06.586Z,29.97
2022-09-07T14:29:37.024Z,29.99
2022-09-07T14:32:10.741Z,30.02
2022-09-07T14:34:39.471Z,30.01
2022-09-07T14:37:13.280Z,30.01
2022-09-07T14:39:44.851Z,30.03
2022-09-07T14:42:19.735Z,30.04
2022-09-07T14:44:47.480Z,30.02
2022-09-07T14:47:29.406Z,29.98
2022-09-07T14:50:05.773Z,30.02
2022-09-07T14:52:43.023Z,30.04
2022-09-07T14:55:29.566Z,30.01
2022-09-07T14:58:25.466Z,30.01
2022-09-07T15:04:01.276Z,30.04
2022-09-07T15:09:30.898Z,30.02
2022-09-07T15:12:17.795Z,29.99
2022-09-07T15:14:47.987Z,29.97
2022-09-07T15:20:40.224Z,29.93
2022-09-07T15:23:12.071Z,30.03
2022-09-07T15:25:40.849Z,30.06
2022-09-07T15:34:10.108Z,30.22
2022-09-07T15:36:40.787Z,30.33
2022-09-07T15:39:19.040Z,30.38
2022-09-07T15:41:47.725Z,30.39
2022-09-07T15:44:16.300Z,30.38
2022-09-07T15:47:42.374Z,30.34
2022-09-07T15:49:33.803Z,30.29
2022-09-07T15:52:08.442Z,30.25
2022-09-07T15:54:39.435Z,30.21
2022-09-07T15:59:54.826Z,30.08
2022-09-07T16:05:11.107Z,30.01
2022-09-07T16:10:27.357Z,29.98
2022-09-07T16:13:09.694Z,29.95
2022-09-07T16:15:45.693Z,29.87
2022-09-07T16:18:17.508Z,29.84
2022-09-07T16:20:45.936Z,29.83
2022-09-07T16:23:16.488Z,29.75
2022-09-07T16:25:56.382Z,29.67
2022-09-07T16:28:24.190Z,29.66
2022-09-07T16:30:51.519Z,29.63
2022-09-07T16:33:20.275Z,29.60
2022-09-07T16:35:59.617Z,29.53
2022-09-07T16:38:46.123Z,29.47
2022-09-07T16:41:15.386Z,29.39
2022-09-07T16:43:43.606Z,29.37
2022-09-07T16:46:14.819Z,29.29
2022-09-07T16:48:44.283Z,29.25
2022-09-07T16:51:15.598Z,29.23
2022-09-07T16:53:43.577Z,29.27
2022-09-07T16:56:13.554Z,29.29
2022-09-07T16:58:43.592Z,29.31
2022-09-07T17:01:13.035Z,29.32
2022-09-07T17:03:41.344Z,29.31
2022-09-07T17:06:13.373Z,29.32
2022-09-07T17:08:42.361Z,29.32
2022-09-07T17:11:12.665Z,29.32
2022-09-07T17:13:42.081Z,29.31
2022-09-07T17:16:12.730Z,29.31
2022-09-07T17:21:33.254Z,29.27
2022-09-07T17:24:01.710Z,29.21
2022-09-07T17:26:32.451Z,29.17
2022-09-07T17:29:00.998Z,29.13
2022-09-07T17:34:19.941Z,29.01
2022-09-07T17:36:48.777Z,28.95
2022-09-07T17:39:18.139Z,28.91
2022-09-07T17:41:46.985Z,28.84
2022-09-07T17:44:14.489Z,28.80
2022-09-07T17:46:41.844Z,28.74
2022-09-07T17:49:13.910Z,28.69
2022-09-07T17:51:41.461Z,28.62
2022-09-07T17:54:15.660Z,28.55
2022-09-07T17:56:44.074Z,28.52
2022-09-07T18:01:59.202Z,28.38
2022-09-07T18:04:27.306Z,28.34
2022-09-07T18:06:55.661Z,28.31
2022-09-07T18:09:24.466Z,28.26
2022-09-07T18:11:51.726Z,28.23
2022-09-07T18:14:19.689Z,28.20
2022-09-07T18:16:49.943Z,28.17
2022-09-07T18:19:18.874Z,28.15
2022-09-07T18:21:48.024Z,28.13
2022-09-07T18:24:19.685Z,28.11
2022-09-07T18:26:52.303Z,28.06
2022-09-07T18:29:32.310Z,28.02
2022-09-07T18:32:04.777Z,27.96
2022-09-07T18:34:35.911Z,27.88
2022-09-07T18:37:03.589Z,27.81
2022-09-07T18:39:37.628Z,27.76
2022-09-07T18:42:07.770Z,27.72
2022-09-07T18:47:29.111Z,27.68
2022-09-07T18:49:58.032Z,27.66
2022-09-07T18:55:12.997Z,27.64
2022-09-07T18:57:41.971Z,27.66
2022-09-07T19:00:12.394Z,27.63
2022-09-07T19:02:39.730Z,27.61
2022-09-07T19:07:55.929Z,27.52
2022-09-07T19:10:23.215Z,27.51
2022-09-07T19:12:51.839Z,27.48
2022-09-07T19:15:20.529Z,27.43
2022-09-07T19:17:47.822Z,27.39
2022-09-07T19:20:15.361Z,27.35
2022-09-07T19:22:42.946Z,27.30
2022-09-07T19:25:10.515Z,27.27
2022-09-07T19:27:37.892Z,27.24
2022-09-07T19:30:08.110Z,27.20
2022-09-07T19:32:35.300Z,27.16
2022-09-07T19:35:02.627Z,27.14
2022-09-07T19:37:32.244Z,27.13
2022-09-07T19:39:59.884Z,27.12
2022-09-07T19:42:27.261Z,27.13
2022-09-07T19:44:54.933Z,27.12
2022-09-07T19:47:23.931Z,27.09
2022-09-07T19:49:52.276Z,27.09
2022-09-07T19:52:19.777Z,27.08
2022-09-07T19:54:47.012Z,27.12
2022-09-07T19:57:14.219Z,27.13
2022-09-07T19:59:41.498Z,27.17
2022-09-07T20:02:09.916Z,27.18
2022-09-07T20:04:38.526Z,27.20
2022-09-07T20:07:06.592Z,27.21
2022-09-07T20:09:33.854Z,27.18
2022-09-07T20:12:02.630Z,27.13
2022-09-07T20:14:29.844Z,27.10
2022-09-07T20:16:57.299Z,27.05
2022-09-07T20:19:24.707Z,27.02
2022-09-07T20:21:55.754Z,27.00
2022-09-07T20:24:23.354Z,26.97
2022-09-07T20:26:50.582Z,26.94
2022-09-07T20:29:33.268Z,26.90
2022-09-07T20:32:01.814Z,26.88
2022-09-07T20:34:29.969Z,26.83
2022-09-07T20:36:58.694Z,26.82
2022-09-07T20:39:26.049Z,26.81
2022-09-07T20:41:53.636Z,26.80
2022-09-07T20:44:20.873Z,26.80
2022-09-07T20:46:48.208Z,26.79
2022-09-07T20:49:15.626Z,26.80
2022-09-07T20:51:42.947Z,26.79
2022-09-07T20:54:11.757Z,26.82
2022-09-07T20:56:39.073Z,26.80
2022-09-07T20:59:06.840Z,26.78
2022-09-07T21:01:35.171Z,26.77
2022-09-07T21:04:04.037Z,26.75
2022-09-07T21:06:32.874Z,26.70
2022-09-07T21:09:01.238Z,26.65
2022-09-07T21:11:32.941Z,26.58
2022-09-07T21:14:06.054Z,26.52
2022-09-07T21:16:34.372Z,26.46
2022-09-07T21:19:04.158Z,26.39
2022-09-07T21:21:38.908Z,26.30
2022-09-07T21:24:14.425Z,26.22
2022-09-07T21:26:43.032Z,26.15
2022-09-07T21:29:17.052Z,26.11
2022-09-07T21:31:44.932Z,26.08
2022-09-07T21:34:12.593Z,26.06
2022-09-07T21:36:40.128Z,26.04
2022-09-07T21:39:10.384Z,26.05
2022-09-07T21:41:39.872Z,26.07
2022-09-07T21:44:11.663Z,26.05
2022-09-07T21:46:38.958Z,26.04
2022-09-07T21:49:06.700Z,26.00
2022-09-07T21:51:34.073Z,25.94
2022-09-07T21:54:01.867Z,25.86
2022-09-07T21:56:31.235Z,25.80
2022-09-07T21:59:01.554Z,25.72
2022-09-07T22:01:31.758Z,25.63
2022-09-07T22:04:01.952Z,25.57
2022-09-07T22:06:30.991Z,25.52
2022-09-07T22:08:59.292Z,25.47
2022-09-07T22:11:28.961Z,25.41
2022-09-07T22:13:59.007Z,25.38
2022-09-07T22:16:26.539Z,25.35
2022-09-07T22:18:55.519Z,25.32
2022-09-07T22:21:25.041Z,25.27
2022-09-07T22:23:56.295Z,25.24
2022-09-07T22:26:26.101Z,25.21
2022-09-07T22:28:53.723Z,25.19
2022-09-07T22:31:24.382Z,25.17
2022-09-07T22:33:56.220Z,25.15
2022-09-07T22:36:26.069Z,25.13
2022-09-07T22:38:55.709Z,25.10
2022-09-07T22:41:26.426Z,25.08
2022-09-07T22:43:54.148Z,25.07
2022-09-07T22:46:24.160Z,25.06
2022-09-07T22:48:55.353Z,25.04
2022-09-07T22:51:26.711Z,25.02
2022-09-07T22:53:55.042Z,25.00
2022-09-07T22:56:26.580Z,24.98
2022-09-07T22:58:56.585Z,24.95
2022-09-07T23:01:26.212Z,24.91
2022-09-07T23:03:55.368Z,24.85
2022-09-07T23:06:27.717Z,24.81
2022-09-07T23:08:58.019Z,24.77
2022-09-07T23:11:25.826Z,24.77
2022-09-07T23:13:54.566Z,24.76
2022-09-07T23:16:23.141Z,24.76
2022-09-07T23:18:50.708Z,24.78
2022-09-07T23:21:20.053Z,24.77
2022-09-07T23:23:51.322Z,24.74
2022-09-07T23:26:19.354Z,24.71
2022-09-07T23:28:50.857Z,24.66
2022-09-07T23:31:18.208Z,24.63
2022-09-07T23:33:45.529Z,24.57
2022-09-07T23:36:12.951Z,24.55
2022-09-07T23:38:41.660Z,24.55
2022-09-07T23:41:08.928Z,24.58
2022-09-07T23:43:36.681Z,24.61
2022-09-07T23:46:04.045Z,24.61
2022-09-07T23:48:31.511Z,24.61
2022-09-07T23:50:58.790Z,24.58
2022-09-07T23:53:26.083Z,24.51
2022-09-07T23:55:54.623Z,24.46
2022-09-07T23:58:23.114Z,24.40
